EFW568X EGKK-LPPR
Flight info
| Callsign | EFW568X |
|---|---|
| Flight time | 1h 53m |
| Altitude | 33000 |
| Route | NOVMA L620 SAM M195 LORKU DCT LOTEE/N0458F350 DCT ELTEP/N0395F230 T328 ASPOR |
| Aircraft | A321/M-SDE3FGHIRWY/LB1 |
Departure
| Time | 2026-05-04 14:47 |
|---|---|
| Airport | London Gatwick Airport (EGKK) |
Arrival
| Time | 2026-05-04 16:40 |
|---|---|
| Airport | Francisco de Sá Carneiro Airport (LPPR) |
| Time | Latitude | Longitude | Altitude | Speed | Heading |
|---|---|---|---|---|---|
| 2026-05-04 14:03 | 51.15540 | -0.16540 | 213 ft | 0 kts | 348° |
| 2026-05-04 14:29 | 51.15512 | -0.16531 | 215 ft | 3 kts | 357° |
| 2026-05-04 14:30 | 51.15486 | -0.16530 | 213 ft | 4 kts | 353° |
| 2026-05-04 14:30 | 51.15465 | -0.16525 | 212 ft | 4 kts | 350° |
| 2026-05-04 14:30 | 51.15423 | -0.16511 | 215 ft | 0 kts | 347° |
| 2026-05-04 14:35 | 51.15426 | -0.16512 | 216 ft | 1 kts | 347° |
| 2026-05-04 14:35 | 51.15456 | -0.16529 | 215 ft | 7 kts | 326° |
| 2026-05-04 14:35 | 51.15458 | -0.16606 | 213 ft | 8 kts | 256° |
| 2026-05-04 14:35 | 51.15446 | -0.16693 | 214 ft | 8 kts | 262° |
| 2026-05-04 14:36 | 51.15455 | -0.16786 | 210 ft | 9 kts | 273° |
| 2026-05-04 14:36 | 51.15441 | -0.16884 | 205 ft | 10 kts | 257° |
| 2026-05-04 14:36 | 51.15422 | -0.17022 | 207 ft | 15 kts | 258° |
| 2026-05-04 14:36 | 51.15392 | -0.17174 | 208 ft | 14 kts | 248° |
| 2026-05-04 14:37 | 51.15364 | -0.17318 | 208 ft | 12 kts | 253° |
| 2026-05-04 14:37 | 51.15310 | -0.17398 | 213 ft | 11 kts | 237° |
| 2026-05-04 14:37 | 51.15292 | -0.17516 | 205 ft | 11 kts | 259° |
| 2026-05-04 14:37 | 51.15276 | -0.17643 | 205 ft | 12 kts | 258° |
| 2026-05-04 14:38 | 51.15257 | -0.17777 | 210 ft | 13 kts | 257° |
| 2026-05-04 14:38 | 51.15239 | -0.17902 | 209 ft | 10 kts | 257° |
| 2026-05-04 14:38 | 51.15230 | -0.17968 | 215 ft | 6 kts | 257° |
| 2026-05-04 14:38 | 51.15227 | -0.17984 | 215 ft | 0 kts | 257° |
| 2026-05-04 14:39 | 51.15225 | -0.18004 | 209 ft | 7 kts | 258° |
| 2026-05-04 14:39 | 51.15209 | -0.18123 | 205 ft | 12 kts | 258° |
| 2026-05-04 14:40 | 51.15170 | -0.18451 | 210 ft | 18 kts | 257° |
| 2026-05-04 14:40 | 51.15143 | -0.18642 | 211 ft | 18 kts | 258° |
| 2026-05-04 14:40 | 51.15116 | -0.18840 | 210 ft | 18 kts | 258° |
| 2026-05-04 14:40 | 51.15089 | -0.19039 | 209 ft | 18 kts | 258° |
| 2026-05-04 14:41 | 51.15061 | -0.19234 | 205 ft | 16 kts | 252° |
| 2026-05-04 14:41 | 51.14982 | -0.19270 | 208 ft | 11 kts | 202° |
| 2026-05-04 14:41 | 51.14926 | -0.19563 | 212 ft | 19 kts | 257° |
| 2026-05-04 14:42 | 51.14869 | -0.19973 | 210 ft | 20 kts | 257° |
| 2026-05-04 14:42 | 51.14838 | -0.20197 | 209 ft | 21 kts | 258° |
| 2026-05-04 14:42 | 51.14808 | -0.20410 | 208 ft | 18 kts | 257° |
| 2026-05-04 14:43 | 51.14784 | -0.20585 | 214 ft | 16 kts | 258° |
| 2026-05-04 14:43 | 51.14762 | -0.20750 | 204 ft | 15 kts | 257° |
| 2026-05-04 14:43 | 51.14739 | -0.20911 | 213 ft | 15 kts | 257° |
| 2026-05-04 14:43 | 51.14717 | -0.21073 | 205 ft | 15 kts | 257° |
| 2026-05-04 14:44 | 51.14695 | -0.21231 | 213 ft | 15 kts | 257° |
| 2026-05-04 14:44 | 51.14673 | -0.21335 | 207 ft | 6 kts | 223° |
| 2026-05-04 14:44 | 51.14634 | -0.21338 | 210 ft | 5 kts | 164° |
| 2026-05-04 14:44 | 51.14617 | -0.21330 | 208 ft | 2 kts | 165° |
| 2026-05-04 14:45 | 51.14569 | -0.21308 | 207 ft | 14 kts | 161° |
| 2026-05-04 14:45 | 51.14518 | -0.21217 | 215 ft | 8 kts | 114° |
| 2026-05-04 14:45 | 51.14521 | -0.21163 | 207 ft | 0 kts | 77° |
| 2026-05-04 14:46 | 51.14522 | -0.21157 | 206 ft | 4 kts | 77° |
| 2026-05-04 14:46 | 51.14581 | -0.20742 | 209 ft | 73 kts | 77° |
| 2026-05-04 14:46 | 51.14737 | -0.19612 | 209 ft | 133 kts | 77° |
| 2026-05-04 14:47 | 51.14968 | -0.17932 | 382 ft | 165 kts | 78° |
| 2026-05-04 14:47 | 51.15131 | -0.16728 | 864 ft | 164 kts | 77° |
| 2026-05-04 14:47 | 51.15373 | -0.14926 | 1570 ft | 167 kts | 78° |
| 2026-05-04 14:47 | 51.15812 | -0.13181 | 1934 ft | 182 kts | 48° |
| 2026-05-04 14:48 | 51.16984 | -0.12270 | 2189 ft | 201 kts | 4° |
| 2026-05-04 14:48 | 51.18342 | -0.12889 | 2502 ft | 214 kts | 324° |
| 2026-05-04 14:48 | 51.19216 | -0.14801 | 2814 ft | 227 kts | 288° |
| 2026-05-04 14:48 | 51.19347 | -0.17410 | 3045 ft | 249 kts | 264° |
| 2026-05-04 14:49 | 51.19124 | -0.20267 | 3451 ft | 266 kts | 263° |
| 2026-05-04 14:49 | 51.18874 | -0.23203 | 4288 ft | 267 kts | 263° |
| 2026-05-04 14:49 | 51.18648 | -0.26151 | 5064 ft | 269 kts | 264° |
| 2026-05-04 14:49 | 51.18460 | -0.29125 | 5788 ft | 270 kts | 265° |
| 2026-05-04 14:50 | 51.18303 | -0.32116 | 6546 ft | 272 kts | 265° |
| 2026-05-04 14:50 | 51.18166 | -0.35143 | 7200 ft | 275 kts | 266° |
| 2026-05-04 14:50 | 51.18042 | -0.38189 | 7823 ft | 277 kts | 266° |
| 2026-05-04 14:50 | 51.17925 | -0.41264 | 8470 ft | 279 kts | 266° |
| 2026-05-04 14:51 | 51.17808 | -0.44358 | 9083 ft | 282 kts | 266° |
| 2026-05-04 14:51 | 51.17688 | -0.47501 | 9702 ft | 285 kts | 265° |
| 2026-05-04 14:51 | 51.17565 | -0.50677 | 10276 ft | 288 kts | 265° |
| 2026-05-04 14:51 | 51.17257 | -0.53795 | 10807 ft | 291 kts | 253° |
| 2026-05-04 14:52 | 51.16519 | -0.56904 | 10950 ft | 310 kts | 246° |
| 2026-05-04 14:52 | 51.15646 | -0.60157 | 11073 ft | 328 kts | 246° |
| 2026-05-04 14:52 | 51.14725 | -0.63577 | 11219 ft | 344 kts | 246° |
| 2026-05-04 14:52 | 51.13766 | -0.67133 | 11562 ft | 353 kts | 246° |
| 2026-05-04 14:53 | 51.12796 | -0.70749 | 12080 ft | 356 kts | 246° |
| 2026-05-04 14:53 | 51.11822 | -0.74387 | 12604 ft | 359 kts | 246° |
| 2026-05-04 14:53 | 51.10839 | -0.78056 | 13139 ft | 362 kts | 246° |
| 2026-05-04 14:53 | 51.09848 | -0.81754 | 13681 ft | 364 kts | 246° |
| 2026-05-04 14:54 | 51.08850 | -0.85481 | 14161 ft | 367 kts | 246° |
| 2026-05-04 14:54 | 51.07844 | -0.89215 | 14622 ft | 369 kts | 246° |
| 2026-05-04 14:54 | 51.06837 | -0.92937 | 15066 ft | 372 kts | 245° |
| 2026-05-04 14:54 | 51.05801 | -0.96777 | 15563 ft | 373 kts | 245° |
| 2026-05-04 14:55 | 51.04792 | -1.00530 | 16045 ft | 376 kts | 245° |
| 2026-05-04 14:55 | 51.03762 | -1.04354 | 16510 ft | 378 kts | 245° |
| 2026-05-04 14:55 | 51.02718 | -1.08201 | 16980 ft | 381 kts | 245° |
| 2026-05-04 14:55 | 51.01651 | -1.12124 | 17433 ft | 383 kts | 245° |
| 2026-05-04 14:56 | 51.00603 | -1.15972 | 17864 ft | 386 kts | 245° |
| 2026-05-04 14:56 | 50.99534 | -1.19885 | 18284 ft | 388 kts | 244° |
| 2026-05-04 14:56 | 50.98453 | -1.23823 | 18658 ft | 390 kts | 244° |
| 2026-05-04 14:56 | 50.97367 | -1.27781 | 19056 ft | 392 kts | 244° |
| 2026-05-04 14:57 | 50.96094 | -1.31594 | 19468 ft | 391 kts | 235° |
| 2026-05-04 14:57 | 50.94410 | -1.34968 | 19862 ft | 391 kts | 224° |
| 2026-05-04 14:57 | 50.92362 | -1.37788 | 20248 ft | 391 kts | 214° |
| 2026-05-04 14:57 | 50.90092 | -1.40165 | 20637 ft | 392 kts | 212° |
| 2026-05-04 14:58 | 50.87807 | -1.42532 | 21052 ft | 393 kts | 212° |
| 2026-05-04 14:58 | 50.85517 | -1.44912 | 21435 ft | 395 kts | 213° |
| 2026-05-04 14:58 | 50.83217 | -1.47304 | 21818 ft | 397 kts | 213° |
| 2026-05-04 14:58 | 50.80905 | -1.49711 | 22187 ft | 398 kts | 213° |
| 2026-05-04 14:59 | 50.78588 | -1.52123 | 22573 ft | 400 kts | 213° |
| 2026-05-04 14:59 | 50.76259 | -1.54542 | 22950 ft | 401 kts | 213° |
| 2026-05-04 14:59 | 50.71564 | -1.59393 | 23672 ft | 405 kts | 213° |
| 2026-05-04 15:00 | 50.69199 | -1.61822 | 23982 ft | 406 kts | 213° |
| 2026-05-04 15:00 | 50.66830 | -1.64254 | 24299 ft | 407 kts | 213° |
| 2026-05-04 15:00 | 50.64457 | -1.66698 | 24611 ft | 408 kts | 213° |
| 2026-05-04 15:01 | 50.59731 | -1.71557 | 25291 ft | 408 kts | 212° |
| 2026-05-04 15:01 | 50.57315 | -1.74028 | 25612 ft | 409 kts | 212° |
| 2026-05-04 15:01 | 50.54952 | -1.76444 | 25915 ft | 411 kts | 212° |
| 2026-05-04 15:01 | 50.52558 | -1.78893 | 26223 ft | 412 kts | 212° |
| 2026-05-04 15:02 | 50.50154 | -1.81351 | 26519 ft | 413 kts | 212° |
| 2026-05-04 15:02 | 50.47740 | -1.83810 | 26814 ft | 414 kts | 211° |
| 2026-05-04 15:02 | 50.45319 | -1.86273 | 27123 ft | 415 kts | 211° |
| 2026-05-04 15:02 | 50.42895 | -1.88740 | 27409 ft | 416 kts | 211° |
| 2026-05-04 15:03 | 50.40462 | -1.91212 | 27696 ft | 417 kts | 211° |
| 2026-05-04 15:03 | 50.38026 | -1.93681 | 27979 ft | 418 kts | 211° |
| 2026-05-04 15:03 | 50.35583 | -1.96159 | 28256 ft | 419 kts | 211° |
| 2026-05-04 15:03 | 50.33132 | -1.98640 | 28509 ft | 420 kts | 211° |
| 2026-05-04 15:04 | 50.30679 | -2.01120 | 28727 ft | 421 kts | 211° |
| 2026-05-04 15:04 | 50.28215 | -2.03609 | 28960 ft | 422 kts | 211° |
| 2026-05-04 15:04 | 50.25750 | -2.06100 | 29151 ft | 423 kts | 210° |
| 2026-05-04 15:05 | 50.20357 | -2.11461 | 29814 ft | 421 kts | 210° |
| 2026-05-04 15:05 | 50.17909 | -2.13840 | 30105 ft | 419 kts | 209° |
| 2026-05-04 15:05 | 50.15429 | -2.16238 | 30346 ft | 419 kts | 209° |
| 2026-05-04 15:05 | 50.12955 | -2.18628 | 30551 ft | 419 kts | 209° |
| 2026-05-04 15:06 | 50.10474 | -2.21028 | 30743 ft | 420 kts | 209° |
| 2026-05-04 15:06 | 50.07992 | -2.23427 | 30931 ft | 420 kts | 209° |
| 2026-05-04 15:06 | 50.05508 | -2.25825 | 31112 ft | 421 kts | 209° |
| 2026-05-04 15:07 | 50.00520 | -2.30642 | 31443 ft | 424 kts | 210° |
| 2026-05-04 15:07 | 49.98012 | -2.33066 | 31586 ft | 425 kts | 210° |
| 2026-05-04 15:07 | 49.95495 | -2.35497 | 31746 ft | 426 kts | 210° |
| 2026-05-04 15:07 | 49.92924 | -2.37773 | 31928 ft | 425 kts | 203° |
| 2026-05-04 15:08 | 49.90248 | -2.39723 | 32130 ft | 425 kts | 203° |
| 2026-05-04 15:08 | 49.87572 | -2.41676 | 32308 ft | 425 kts | 203° |
| 2026-05-04 15:08 | 49.84888 | -2.43641 | 32477 ft | 426 kts | 204° |
| 2026-05-04 15:08 | 49.82208 | -2.45602 | 32646 ft | 427 kts | 204° |
| 2026-05-04 15:09 | 49.79526 | -2.47561 | 32809 ft | 427 kts | 204° |
| 2026-05-04 15:09 | 49.76838 | -2.49520 | 32987 ft | 428 kts | 204° |
| 2026-05-04 15:09 | 49.74149 | -2.51473 | 33019 ft | 426 kts | 204° |
| 2026-05-04 15:10 | 49.67025 | -2.56649 | 33013 ft | 424 kts | 203° |
| 2026-05-04 15:11 | 49.59013 | -2.62453 | 32999 ft | 424 kts | 203° |
| 2026-05-04 15:11 | 49.53669 | -2.66307 | 33006 ft | 424 kts | 203° |
| 2026-05-04 15:12 | 49.48322 | -2.70156 | 33015 ft | 425 kts | 203° |
| 2026-05-04 15:12 | 49.42962 | -2.73999 | 33003 ft | 426 kts | 203° |
| 2026-05-04 15:13 | 49.37580 | -2.77857 | 33004 ft | 427 kts | 203° |
| 2026-05-04 15:13 | 49.32143 | -2.81747 | 32996 ft | 435 kts | 203° |
| 2026-05-04 15:14 | 49.26612 | -2.85692 | 32999 ft | 441 kts | 203° |
| 2026-05-04 15:14 | 49.21033 | -2.89655 | 32995 ft | 442 kts | 203° |
| 2026-05-04 15:15 | 49.15481 | -2.93595 | 32994 ft | 443 kts | 203° |
| 2026-05-04 15:15 | 49.09892 | -2.97545 | 32998 ft | 443 kts | 203° |
| 2026-05-04 15:16 | 49.01488 | -3.03482 | 33007 ft | 444 kts | 203° |
| 2026-05-04 15:17 | 48.93065 | -3.09405 | 33027 ft | 446 kts | 203° |
| 2026-05-04 15:17 | 48.84588 | -3.15328 | 33021 ft | 447 kts | 203° |
| 2026-05-04 15:18 | 48.78923 | -3.19278 | 33019 ft | 448 kts | 203° |
| 2026-05-04 15:19 | 48.70414 | -3.25197 | 33028 ft | 449 kts | 203° |
| 2026-05-04 15:19 | 48.61895 | -3.31101 | 33031 ft | 449 kts | 203° |
| 2026-05-04 15:20 | 48.56211 | -3.35020 | 33024 ft | 449 kts | 203° |
| 2026-05-04 15:20 | 48.50567 | -3.38918 | 33010 ft | 449 kts | 203° |
| 2026-05-04 15:21 | 48.44846 | -3.42853 | 33013 ft | 449 kts | 203° |
| 2026-05-04 15:22 | 48.36358 | -3.48664 | 33022 ft | 449 kts | 203° |
| 2026-05-04 15:22 | 48.27819 | -3.54495 | 33010 ft | 450 kts | 203° |
| 2026-05-04 15:23 | 48.22120 | -3.58379 | 33003 ft | 449 kts | 203° |
| 2026-05-04 15:23 | 48.16429 | -3.62247 | 33004 ft | 449 kts | 203° |
| 2026-05-04 15:24 | 48.05026 | -3.69960 | 33001 ft | 450 kts | 203° |
| 2026-05-04 15:25 | 47.99317 | -3.73814 | 33017 ft | 450 kts | 203° |
| 2026-05-04 15:26 | 47.90756 | -3.79565 | 33023 ft | 450 kts | 203° |
| 2026-05-04 15:26 | 47.82224 | -3.85282 | 33018 ft | 450 kts | 202° |
| 2026-05-04 15:27 | 47.73656 | -3.90999 | 33012 ft | 450 kts | 202° |
| 2026-05-04 15:28 | 47.65082 | -3.96691 | 33015 ft | 450 kts | 202° |
| 2026-05-04 15:29 | 47.56516 | -4.02369 | 33013 ft | 449 kts | 202° |
| 2026-05-04 15:30 | 47.36573 | -4.15504 | 33019 ft | 449 kts | 202° |
| 2026-05-04 15:31 | 47.28001 | -4.21113 | 33011 ft | 449 kts | 202° |
| 2026-05-04 15:32 | 47.13682 | -4.30438 | 33007 ft | 450 kts | 202° |
| 2026-05-04 15:34 | 46.99349 | -4.39721 | 33012 ft | 450 kts | 202° |
| 2026-05-04 15:34 | 46.90774 | -4.45251 | 33012 ft | 450 kts | 202° |
| 2026-05-04 15:35 | 46.82169 | -4.50779 | 33014 ft | 450 kts | 202° |
| 2026-05-04 15:36 | 46.73573 | -4.56273 | 33014 ft | 450 kts | 202° |
| 2026-05-04 15:36 | 46.67837 | -4.59937 | 33014 ft | 450 kts | 202° |
| 2026-05-04 15:37 | 46.62105 | -4.63591 | 33013 ft | 449 kts | 202° |
| 2026-05-04 15:37 | 46.56377 | -4.67230 | 33011 ft | 449 kts | 202° |
| 2026-05-04 15:38 | 46.50646 | -4.70852 | 33010 ft | 449 kts | 202° |
| 2026-05-04 15:38 | 46.44923 | -4.74470 | 33014 ft | 449 kts | 202° |
| 2026-05-04 15:39 | 46.39229 | -4.78064 | 33014 ft | 448 kts | 202° |
| 2026-05-04 15:40 | 46.30656 | -4.83462 | 33023 ft | 448 kts | 202° |
| 2026-05-04 15:40 | 46.24934 | -4.87045 | 33014 ft | 448 kts | 202° |
| 2026-05-04 15:41 | 46.19209 | -4.90625 | 33014 ft | 448 kts | 202° |
| 2026-05-04 15:41 | 46.13487 | -4.94206 | 33012 ft | 448 kts | 202° |
| 2026-05-04 15:42 | 46.07766 | -4.97776 | 33011 ft | 448 kts | 202° |
| 2026-05-04 15:42 | 46.02035 | -5.01331 | 33010 ft | 448 kts | 202° |
| 2026-05-04 15:43 | 45.96320 | -5.04873 | 33013 ft | 447 kts | 202° |
| 2026-05-04 15:43 | 45.90598 | -5.08417 | 33012 ft | 447 kts | 202° |
| 2026-05-04 15:44 | 45.84919 | -5.11927 | 33003 ft | 447 kts | 202° |
| 2026-05-04 15:44 | 45.79198 | -5.15448 | 33019 ft | 447 kts | 202° |
| 2026-05-04 15:45 | 45.73481 | -5.18956 | 33013 ft | 447 kts | 202° |
| 2026-05-04 15:45 | 45.67763 | -5.22465 | 33011 ft | 447 kts | 202° |
| 2026-05-04 15:46 | 45.62042 | -5.25970 | 33014 ft | 447 kts | 202° |
| 2026-05-04 15:46 | 45.56369 | -5.29433 | 33019 ft | 446 kts | 202° |
| 2026-05-04 15:47 | 45.50633 | -5.32925 | 33014 ft | 445 kts | 202° |
| 2026-05-04 15:47 | 45.44967 | -5.36365 | 33006 ft | 445 kts | 203° |
| 2026-05-04 15:48 | 45.39236 | -5.39837 | 33018 ft | 444 kts | 202° |
| 2026-05-04 15:48 | 45.30743 | -5.44978 | 33027 ft | 444 kts | 203° |
| 2026-05-04 15:49 | 45.25048 | -5.48414 | 33018 ft | 445 kts | 203° |
| 2026-05-04 15:49 | 45.19342 | -5.51838 | 33014 ft | 445 kts | 203° |
| 2026-05-04 15:50 | 45.13641 | -5.55255 | 33016 ft | 445 kts | 203° |
| 2026-05-04 15:50 | 45.07939 | -5.58683 | 33015 ft | 445 kts | 203° |
| 2026-05-04 15:51 | 45.02241 | -5.62105 | 33005 ft | 445 kts | 203° |
| 2026-05-04 15:51 | 44.96540 | -5.65509 | 33013 ft | 445 kts | 203° |
| 2026-05-04 15:52 | 44.90836 | -5.68906 | 33016 ft | 445 kts | 203° |
| 2026-05-04 15:52 | 44.85127 | -5.72296 | 33022 ft | 445 kts | 204° |
| 2026-05-04 15:53 | 44.79413 | -5.75680 | 33008 ft | 446 kts | 204° |
| 2026-05-04 15:53 | 44.73693 | -5.79065 | 33008 ft | 446 kts | 204° |
| 2026-05-04 15:54 | 44.67962 | -5.82442 | 33014 ft | 447 kts | 204° |
| 2026-05-04 15:54 | 44.62639 | -5.86885 | 33016 ft | 446 kts | 216° |
| 2026-05-04 15:55 | 44.58437 | -5.91071 | 33017 ft | 446 kts | 216° |
| 2026-05-04 15:55 | 44.52543 | -5.96914 | 33018 ft | 446 kts | 215° |
| 2026-05-04 15:56 | 44.48287 | -6.01112 | 33019 ft | 446 kts | 215° |
| 2026-05-04 15:56 | 44.43207 | -6.06110 | 33020 ft | 446 kts | 216° |
| 2026-05-04 15:57 | 44.38129 | -6.11104 | 33032 ft | 446 kts | 216° |
| 2026-05-04 15:57 | 44.33067 | -6.16075 | 33025 ft | 447 kts | 216° |
| 2026-05-04 15:58 | 44.27973 | -6.21060 | 33025 ft | 447 kts | 216° |
| 2026-05-04 15:58 | 44.22874 | -6.26047 | 33020 ft | 447 kts | 216° |
| 2026-05-04 15:59 | 44.17780 | -6.31027 | 33026 ft | 447 kts | 216° |
| 2026-05-04 15:59 | 44.12681 | -6.35987 | 33031 ft | 447 kts | 216° |
| 2026-05-04 16:00 | 44.07613 | -6.40905 | 33032 ft | 447 kts | 216° |
| 2026-05-04 16:00 | 44.02505 | -6.45852 | 33031 ft | 447 kts | 216° |
| 2026-05-04 16:01 | 43.97403 | -6.50785 | 33039 ft | 447 kts | 216° |
| 2026-05-04 16:01 | 43.92295 | -6.55712 | 33041 ft | 447 kts | 216° |
| 2026-05-04 16:02 | 43.87179 | -6.60636 | 33043 ft | 447 kts | 216° |
| 2026-05-04 16:03 | 43.79507 | -6.68016 | 33042 ft | 447 kts | 216° |
| 2026-05-04 16:03 | 43.74406 | -6.72906 | 33055 ft | 446 kts | 216° |
| 2026-05-04 16:04 | 43.69303 | -6.77786 | 33058 ft | 445 kts | 216° |
| 2026-05-04 16:04 | 43.61660 | -6.85063 | 33055 ft | 445 kts | 217° |
| 2026-05-04 16:05 | 43.56562 | -6.89912 | 33054 ft | 445 kts | 217° |
| 2026-05-04 16:06 | 43.48914 | -6.97162 | 33063 ft | 445 kts | 217° |
| 2026-05-04 16:07 | 43.38717 | -7.06798 | 33055 ft | 444 kts | 217° |
| 2026-05-04 16:08 | 43.28526 | -7.16394 | 33070 ft | 443 kts | 217° |
| 2026-05-04 16:09 | 43.15793 | -7.28305 | 33058 ft | 443 kts | 217° |
| 2026-05-04 16:10 | 43.05598 | -7.37819 | 33072 ft | 443 kts | 217° |
| 2026-05-04 16:11 | 42.95394 | -7.47293 | 33066 ft | 443 kts | 217° |
| 2026-05-04 16:12 | 42.80191 | -7.61333 | 31884 ft | 433 kts | 217° |
| 2026-05-04 16:13 | 42.75258 | -7.65875 | 30762 ft | 423 kts | 218° |
| 2026-05-04 16:13 | 42.70436 | -7.70310 | 29625 ft | 414 kts | 218° |
| 2026-05-04 16:14 | 42.65706 | -7.74631 | 28381 ft | 405 kts | 217° |
| 2026-05-04 16:14 | 42.60887 | -7.78474 | 27192 ft | 402 kts | 206° |
| 2026-05-04 16:15 | 42.52880 | -7.81638 | 25498 ft | 394 kts | 200° |
| 2026-05-04 16:16 | 42.47652 | -7.83596 | 24504 ft | 385 kts | 200° |
| 2026-05-04 16:16 | 42.40033 | -7.86460 | 22970 ft | 373 kts | 199° |
| 2026-05-04 16:17 | 42.35068 | -7.88315 | 21869 ft | 366 kts | 199° |
| 2026-05-04 16:18 | 42.27816 | -7.91005 | 20646 ft | 356 kts | 199° |
| 2026-05-04 16:18 | 42.25460 | -7.91878 | 20266 ft | 355 kts | 199° |
| 2026-05-04 16:19 | 42.18359 | -7.94519 | 19136 ft | 351 kts | 199° |
| 2026-05-04 16:19 | 42.13670 | -7.96265 | 18415 ft | 348 kts | 199° |
| 2026-05-04 16:20 | 42.06707 | -7.98841 | 17171 ft | 343 kts | 199° |
| 2026-05-04 16:20 | 42.02127 | -8.00571 | 16378 ft | 339 kts | 201° |
| 2026-05-04 16:21 | 41.95502 | -8.03710 | 15223 ft | 334 kts | 204° |
| 2026-05-04 16:22 | 41.91178 | -8.05830 | 14479 ft | 331 kts | 203° |
| 2026-05-04 16:22 | 41.84674 | -8.08929 | 13714 ft | 329 kts | 204° |
| 2026-05-04 16:23 | 41.78197 | -8.11993 | 12903 ft | 329 kts | 202° |
| 2026-05-04 16:24 | 41.69617 | -8.16023 | 11853 ft | 325 kts | 203° |
| 2026-05-04 16:25 | 41.65362 | -8.18010 | 11344 ft | 322 kts | 202° |
| 2026-05-04 16:26 | 41.56952 | -8.21963 | 10313 ft | 316 kts | 203° |
| 2026-05-04 16:26 | 41.50906 | -8.24786 | 9384 ft | 296 kts | 203° |
| 2026-05-04 16:27 | 41.47116 | -8.26552 | 8749 ft | 285 kts | 204° |
| 2026-05-04 16:28 | 41.41622 | -8.29118 | 7849 ft | 274 kts | 204° |
| 2026-05-04 16:28 | 41.36256 | -8.31619 | 7270 ft | 272 kts | 202° |
| 2026-05-04 16:29 | 41.29109 | -8.34927 | 6498 ft | 272 kts | 202° |
| 2026-05-04 16:30 | 41.23766 | -8.37410 | 5872 ft | 271 kts | 202° |
| 2026-05-04 16:31 | 41.20207 | -8.39058 | 5461 ft | 270 kts | 201° |
| 2026-05-04 16:31 | 41.14917 | -8.41500 | 5058 ft | 270 kts | 204° |
| 2026-05-04 16:32 | 41.10232 | -8.45215 | 4681 ft | 261 kts | 228° |
| 2026-05-04 16:33 | 41.07688 | -8.48640 | 4434 ft | 260 kts | 229° |
| 2026-05-04 16:33 | 41.05162 | -8.52063 | 4187 ft | 260 kts | 228° |
| 2026-05-04 16:34 | 41.02975 | -8.55670 | 3687 ft | 238 kts | 253° |
| 2026-05-04 16:34 | 41.02689 | -8.57734 | 3435 ft | 221 kts | 275° |
| 2026-05-04 16:35 | 41.04733 | -8.62242 | 2686 ft | 192 kts | 329° |
| 2026-05-04 16:35 | 41.08551 | -8.63876 | 2698 ft | 186 kts | 345° |
| 2026-05-04 16:36 | 41.09795 | -8.64196 | 2649 ft | 178 kts | 344° |
| 2026-05-04 16:36 | 41.12195 | -8.64820 | 2245 ft | 169 kts | 344° |
| 2026-05-04 16:37 | 41.14362 | -8.65380 | 1857 ft | 150 kts | 345° |
| 2026-05-04 16:37 | 41.15358 | -8.65639 | 1648 ft | 143 kts | 344° |
| 2026-05-04 16:37 | 41.17280 | -8.66146 | 1311 ft | 139 kts | 345° |
| 2026-05-04 16:38 | 41.19201 | -8.66653 | 996 ft | 142 kts | 346° |
| 2026-05-04 16:39 | 41.22070 | -8.67401 | 522 ft | 141 kts | 345° |
| 2026-05-04 16:39 | 41.23928 | -8.67895 | 223 ft | 123 kts | 347° |
| 2026-05-04 16:40 | 41.24912 | -8.68152 | 197 ft | 54 kts | 349° |
| 2026-05-04 16:40 | 41.25245 | -8.68115 | 183 ft | 8 kts | 22° |
| 2026-05-04 16:41 | 41.25266 | -8.68018 | 183 ft | 6 kts | 154° |
| 2026-05-04 16:41 | 41.25093 | -8.67971 | 194 ft | 10 kts | 169° |
| 2026-05-04 16:42 | 41.24873 | -8.67908 | 204 ft | 17 kts | 160° |
| 2026-05-04 16:43 | 41.24666 | -8.67806 | 216 ft | 18 kts | 169° |
| 2026-05-04 16:43 | 41.24376 | -8.67726 | 225 ft | 20 kts | 168° |
| 2026-05-04 16:43 | 41.24273 | -8.67655 | 232 ft | 15 kts | 131° |
| 2026-05-04 16:44 | 41.24063 | -8.67427 | 242 ft | 9 kts | 165° |
| 2026-05-04 16:45 | 41.23990 | -8.67359 | 242 ft | 5 kts | 108° |
| 2026-05-04 16:46 | 41.23972 | -8.67291 | 242 ft | 0 kts | 109° |